createdAt,value
2023-05-05T00:00:41.350Z,62.67
2023-05-05T00:01:41.432Z,62.86
2023-05-05T00:02:47.637Z,62.96
2023-05-05T00:03:41.634Z,61.89
2023-05-05T00:04:41.685Z,59.09
2023-05-05T00:05:41.770Z,56.46
2023-05-05T00:06:41.846Z,56.42
2023-05-05T00:07:41.926Z,57.39
2023-05-05T00:08:42.008Z,58.68
2023-05-05T00:09:42.105Z,59.01
2023-05-05T00:10:42.175Z,59.26
2023-05-05T00:11:42.255Z,59.47
2023-05-05T00:12:42.345Z,59.72
2023-05-05T00:13:42.419Z,60.37
2023-05-05T00:14:42.527Z,61.07
2023-05-05T00:15:42.559Z,61.61
2023-05-05T00:16:42.699Z,61.84
2023-05-05T00:17:42.731Z,62.12
2023-05-05T00:18:42.789Z,62.16
2023-05-05T00:19:42.901Z,61.89
2023-05-05T00:20:42.978Z,61.25
2023-05-05T00:21:43.061Z,62.16
2023-05-05T00:22:43.134Z,62.44
2023-05-05T00:23:43.250Z,62.58
2023-05-05T00:24:43.329Z,63.00
2023-05-05T00:25:43.375Z,62.58
2023-05-05T00:26:43.494Z,62.44
2023-05-05T00:27:43.542Z,62.44
2023-05-05T00:28:43.639Z,62.35
2023-05-05T00:29:43.744Z,62.12
2023-05-05T00:30:43.816Z,62.63
2023-05-05T00:31:43.960Z,62.25
2023-05-05T00:32:44.017Z,62.49
2023-05-05T00:33:50.537Z,62.25
2023-05-05T00:34:44.136Z,62.07
2023-05-05T00:35:44.233Z,62.12
2023-05-05T00:36:44.283Z,62.21
2023-05-05T00:37:44.363Z,61.57
2023-05-05T00:38:44.464Z,61.75
2023-05-05T00:39:44.500Z,61.39
2023-05-05T00:40:44.609Z,61.03
2023-05-05T00:41:44.687Z,60.85
2023-05-05T00:42:44.776Z,61.79
2023-05-05T00:43:44.844Z,61.61
2023-05-05T00:44:44.985Z,61.61
2023-05-05T00:45:44.992Z,61.39
2023-05-05T00:46:45.125Z,61.70
2023-05-05T00:47:45.192Z,62.21
2023-05-05T00:48:45.209Z,62.44
2023-05-05T00:49:45.290Z,62.35
2023-05-05T00:50:45.376Z,62.86
2023-05-05T00:51:45.482Z,63.29
2023-05-05T00:52:45.556Z,63.63
2023-05-05T00:53:45.674Z,63.72
2023-05-05T00:54:45.701Z,64.11
2023-05-05T00:55:45.779Z,63.92
2023-05-05T00:56:45.905Z,63.87
2023-05-05T00:57:45.950Z,64.71
2023-05-05T00:58:46.041Z,64.76
2023-05-05T00:59:46.155Z,64.86
2023-05-05T01:00:46.206Z,65.26
2023-05-05T01:01:46.380Z,64.71
2023-05-05T01:02:46.507Z,64.21
2023-05-05T01:03:46.584Z,63.87
2023-05-05T01:04:53.002Z,64.26
2023-05-05T01:05:46.610Z,63.92
2023-05-05T01:06:46.689Z,62.77
2023-05-05T01:07:46.784Z,62.53
2023-05-05T01:08:46.866Z,61.79
2023-05-05T01:09:46.958Z,62.96
2023-05-05T01:10:47.015Z,63.63
2023-05-05T01:11:47.102Z,64.26
2023-05-05T01:12:47.231Z,63.97
2023-05-05T01:13:47.287Z,64.41
2023-05-05T01:14:47.364Z,64.46
2023-05-05T01:15:47.446Z,64.96
2023-05-05T01:16:47.543Z,65.36
2023-05-05T01:17:47.704Z,65.88
2023-05-05T01:18:47.714Z,66.51
2023-05-05T01:19:47.768Z,66.29
2023-05-05T01:20:48.757Z,65.67
2023-05-05T01:21:47.925Z,64.91
2023-05-05T01:22:48.005Z,64.61
2023-05-05T01:23:48.087Z,64.46
2023-05-05T01:24:48.168Z,62.81
2023-05-05T01:25:48.243Z,63.10
2023-05-05T01:26:48.315Z,63.87
2023-05-05T01:27:48.395Z,64.66
2023-05-05T01:28:48.513Z,65.57
2023-05-05T01:29:48.542Z,65.52
2023-05-05T01:30:48.626Z,65.21
2023-05-05T01:31:48.742Z,66.51
2023-05-05T01:32:48.822Z,67.25
2023-05-05T01:33:48.864Z,67.36
2023-05-05T01:34:48.944Z,67.31
2023-05-05T01:35:54.985Z,67.42
2023-05-05T01:36:49.080Z,68.24
2023-05-05T01:37:49.154Z,68.63
2023-05-05T01:38:49.231Z,68.80
2023-05-05T01:39:49.316Z,68.69
2023-05-05T01:40:49.443Z,69.14
2023-05-05T01:41:49.481Z,69.26
2023-05-05T01:42:49.567Z,69.03
2023-05-05T01:43:49.645Z,69.37
2023-05-05T01:44:49.707Z,69.31
2023-05-05T01:45:49.781Z,70.07
2023-05-05T01:46:50.375Z,69.14
2023-05-05T01:47:49.970Z,69.14
2023-05-05T01:48:49.989Z,69.49
2023-05-05T01:49:50.383Z,69.14
2023-05-05T01:50:50.172Z,68.97
2023-05-05T01:51:50.266Z,68.57
2023-05-05T01:52:50.379Z,69.37
2023-05-05T01:53:50.439Z,69.37
2023-05-05T01:54:50.552Z,69.31
2023-05-05T01:55:50.636Z,69.49
2023-05-05T01:56:50.667Z,69.72
2023-05-05T01:57:50.742Z,69.37
2023-05-05T01:58:50.848Z,68.74
2023-05-05T01:59:50.886Z,68.18
2023-05-05T02:00:51.017Z,68.35
2023-05-05T02:01:51.071Z,68.35
2023-05-05T02:02:51.246Z,67.53
2023-05-05T02:03:51.186Z,66.99
2023-05-05T02:04:51.282Z,66.77
2023-05-05T02:05:51.378Z,66.40
2023-05-05T02:06:59.073Z,66.09
2023-05-05T02:07:51.519Z,65.88
2023-05-05T02:08:51.596Z,65.78
2023-05-05T02:09:51.677Z,65.83
2023-05-05T02:10:51.840Z,65.11
2023-05-05T02:11:51.845Z,64.31
2023-05-05T02:12:51.935Z,63.38
2023-05-05T02:13:52.076Z,64.21
2023-05-05T02:14:52.086Z,64.66
2023-05-05T02:15:52.196Z,64.51
2023-05-05T02:16:52.299Z,64.11
2023-05-05T02:17:52.392Z,63.82
2023-05-05T02:18:52.405Z,63.92
2023-05-05T02:19:52.526Z,64.16
2023-05-05T02:20:52.581Z,63.63
2023-05-05T02:21:52.691Z,63.29
2023-05-05T02:22:52.827Z,62.72
2023-05-05T02:23:52.835Z,62.35
2023-05-05T02:24:52.903Z,61.61
2023-05-05T02:25:53.052Z,61.52
2023-05-05T02:26:53.072Z,62.21
2023-05-05T02:27:53.109Z,62.44
2023-05-05T02:28:53.246Z,62.81
2023-05-05T02:29:53.272Z,63.53
2023-05-05T02:30:53.361Z,64.36
2023-05-05T02:31:53.541Z,64.26
2023-05-05T02:32:53.643Z,64.11
2023-05-05T02:33:53.620Z,64.46
2023-05-05T02:34:54.405Z,63.92
2023-05-05T02:35:53.755Z,63.77
2023-05-05T02:36:53.839Z,63.87
2023-05-05T02:38:00.932Z,64.91
2023-05-05T02:38:53.992Z,65.16
2023-05-05T02:39:54.084Z,64.96
2023-05-05T02:40:54.183Z,65.47
2023-05-05T02:41:54.270Z,65.57
2023-05-05T02:42:54.412Z,65.01
2023-05-05T02:43:54.439Z,64.16
2023-05-05T02:44:54.481Z,63.15
2023-05-05T02:45:54.575Z,61.70
2023-05-05T02:46:54.751Z,60.59
2023-05-05T02:47:54.796Z,59.72
2023-05-05T02:48:54.785Z,59.26
2023-05-05T02:49:54.870Z,59.26
2023-05-05T02:50:54.950Z,59.55
2023-05-05T02:51:55.046Z,59.38
2023-05-05T02:52:55.141Z,59.38
2023-05-05T02:53:55.218Z,59.81
2023-05-05T02:54:55.292Z,59.94
2023-05-05T02:55:55.395Z,60.02
2023-05-05T02:56:55.483Z,59.60
2023-05-05T02:57:55.554Z,58.80
2023-05-05T02:58:55.662Z,58.51
2023-05-05T02:59:55.737Z,57.95
2023-05-05T03:00:55.832Z,57.75
2023-05-05T03:01:55.941Z,58.68
2023-05-05T03:02:56.038Z,59.60
2023-05-05T03:03:56.140Z,60.59
2023-05-05T03:04:56.094Z,61.84
2023-05-05T03:05:56.190Z,62.35
2023-05-05T03:06:56.252Z,63.10
2023-05-05T03:07:56.326Z,62.86
2023-05-05T03:09:02.974Z,63.15
2023-05-05T03:09:56.488Z,63.10
2023-05-05T03:10:56.587Z,62.81
2023-05-05T03:11:56.672Z,62.81
2023-05-05T03:12:56.809Z,63.05
2023-05-05T03:13:56.794Z,63.24
2023-05-05T03:14:56.886Z,64.21
2023-05-05T03:15:57.045Z,64.66
2023-05-05T03:16:57.039Z,65.57
2023-05-05T03:17:57.225Z,65.36
2023-05-05T03:18:57.205Z,65.16
2023-05-05T03:19:57.271Z,64.46
2023-05-05T03:20:57.356Z,64.41
2023-05-05T03:21:57.434Z,63.77
2023-05-05T03:22:57.523Z,63.67
2023-05-05T03:23:57.613Z,63.48
2023-05-05T03:24:57.694Z,63.29
2023-05-05T03:25:57.770Z,62.72
2023-05-05T03:26:57.858Z,63.00
2023-05-05T03:27:57.945Z,63.43
2023-05-05T03:28:58.034Z,65.36
2023-05-05T03:29:58.131Z,66.61
2023-05-05T03:30:58.220Z,67.15
2023-05-05T03:31:58.322Z,67.25
2023-05-05T03:32:58.426Z,66.03
2023-05-05T03:33:58.522Z,64.56
2023-05-05T03:34:58.574Z,63.87
2023-05-05T03:35:58.650Z,63.00
2023-05-05T03:36:58.729Z,64.01
2023-05-05T03:37:58.806Z,64.26
2023-05-05T03:38:58.890Z,64.11
2023-05-05T03:40:05.075Z,64.46
2023-05-05T03:40:59.041Z,64.66
2023-05-05T03:41:59.148Z,64.26
2023-05-05T03:42:59.205Z,65.21
2023-05-05T03:43:59.264Z,65.57
2023-05-05T03:44:59.355Z,64.81
2023-05-05T03:45:59.494Z,64.01
2023-05-05T03:46:59.554Z,63.34
2023-05-05T03:47:59.609Z,63.29
2023-05-05T03:48:59.679Z,62.91
2023-05-05T03:49:59.755Z,63.10
2023-05-05T03:50:59.861Z,63.24
2023-05-05T03:51:59.958Z,63.00
2023-05-05T03:53:00.019Z,62.72
2023-05-05T03:54:00.135Z,62.21
2023-05-05T03:55:00.200Z,61.98
2023-05-05T03:56:00.284Z,61.03
2023-05-05T03:57:00.324Z,60.85
2023-05-05T03:58:00.415Z,60.76
2023-05-05T03:59:00.506Z,60.99
2023-05-05T04:00:00.609Z,61.07
2023-05-05T04:01:00.674Z,61.03
2023-05-05T04:02:00.814Z,60.54
2023-05-05T04:03:00.965Z,60.07
2023-05-05T04:04:00.941Z,60.46
2023-05-05T04:05:00.996Z,60.41
2023-05-05T04:06:01.074Z,60.46
2023-05-05T04:07:01.148Z,61.16
2023-05-05T04:08:01.230Z,60.85
2023-05-05T04:09:01.331Z,60.02
2023-05-05T04:10:01.404Z,59.60
2023-05-05T04:11:07.478Z,60.07
2023-05-05T04:12:01.582Z,59.72
2023-05-05T04:13:01.695Z,60.11
2023-05-05T04:14:01.739Z,60.15
2023-05-05T04:15:01.831Z,60.41
2023-05-05T04:16:01.922Z,61.03
2023-05-05T04:17:02.021Z,61.34
2023-05-05T04:18:02.089Z,61.57
2023-05-05T04:19:02.134Z,60.90
2023-05-05T04:20:02.238Z,60.37
2023-05-05T04:21:02.339Z,59.90
2023-05-05T04:22:02.411Z,60.02
2023-05-05T04:23:02.482Z,59.94
2023-05-05T04:24:02.598Z,60.46
2023-05-05T04:25:02.681Z,59.85
2023-05-05T04:26:02.750Z,60.33
2023-05-05T04:27:02.828Z,60.50
2023-05-05T04:28:02.902Z,61.79
2023-05-05T04:29:02.975Z,62.63
2023-05-05T04:30:03.078Z,62.77
2023-05-05T04:31:03.174Z,63.19
2023-05-05T04:32:03.252Z,63.29
2023-05-05T04:33:03.395Z,63.10
2023-05-05T04:34:03.463Z,63.19
2023-05-05T04:35:03.529Z,62.96
2023-05-05T04:36:03.594Z,62.81
2023-05-05T04:37:03.661Z,62.49
2023-05-05T04:38:03.745Z,63.10
2023-05-05T04:39:03.891Z,62.86
2023-05-05T04:40:03.901Z,62.63
2023-05-05T04:41:03.985Z,63.24
2023-05-05T04:42:10.047Z,63.53
2023-05-05T04:43:04.143Z,64.51
2023-05-05T04:44:04.232Z,65.06
2023-05-05T04:45:04.291Z,65.36
2023-05-05T04:46:04.408Z,65.62
2023-05-05T04:47:04.443Z,64.36
2023-05-05T04:48:04.538Z,63.10
2023-05-05T04:49:04.614Z,63.67
2023-05-05T04:50:04.735Z,63.38
2023-05-05T04:51:04.768Z,63.67
2023-05-05T04:52:04.837Z,61.89
2023-05-05T04:53:04.944Z,62.21
2023-05-05T04:54:05.006Z,61.79
2023-05-05T04:55:05.120Z,60.72
2023-05-05T04:56:05.169Z,62.67
2023-05-05T04:57:05.219Z,64.91
2023-05-05T04:58:05.318Z,66.56
2023-05-05T04:59:05.413Z,66.67
2023-05-05T05:00:05.675Z,65.98
2023-05-05T05:01:05.562Z,66.61
2023-05-05T05:02:05.720Z,67.74
2023-05-05T05:03:05.841Z,69.31
2023-05-05T05:04:05.871Z,70.12
2023-05-05T05:05:05.866Z,71.02
2023-05-05T05:06:05.935Z,69.83
2023-05-05T05:07:06.009Z,68.57
2023-05-05T05:08:06.071Z,68.46
2023-05-05T05:09:06.148Z,69.89
2023-05-05T05:10:06.344Z,70.60
2023-05-05T05:11:06.313Z,70.72
2023-05-05T05:12:06.422Z,70.18
2023-05-05T05:13:14.501Z,70.01
2023-05-05T05:14:06.584Z,71.32
2023-05-05T05:15:06.696Z,73.25
2023-05-05T05:16:06.824Z,73.13
2023-05-05T05:17:06.867Z,72.31
2023-05-05T05:18:06.961Z,73.13
2023-05-05T05:19:07.005Z,73.19
2023-05-05T05:20:07.337Z,70.30
2023-05-05T05:21:07.187Z,69.20
2023-05-05T05:22:07.270Z,69.43
2023-05-05T05:23:07.367Z,69.72
2023-05-05T05:24:07.457Z,70.66
2023-05-05T05:25:07.541Z,70.42
2023-05-05T05:26:07.615Z,71.75
2023-05-05T05:27:09.800Z,75.36
2023-05-05T05:28:10.582Z,74.43
2023-05-05T05:29:07.865Z,74.23
2023-05-05T05:30:08.108Z,75.50
2023-05-05T05:31:08.013Z,77.03
2023-05-05T05:32:08.179Z,77.24
2023-05-05T05:33:08.216Z,77.03
2023-05-05T05:34:09.006Z,77.60
2023-05-05T05:35:08.300Z,79.06
2023-05-05T05:36:08.399Z,78.54
2023-05-05T05:37:08.501Z,76.60
2023-05-05T05:38:08.550Z,75.70
2023-05-05T05:39:08.620Z,75.84
2023-05-05T05:40:08.897Z,75.77
2023-05-05T05:41:08.745Z,75.91
2023-05-05T05:42:08.848Z,76.74
2023-05-05T05:43:08.984Z,75.36
2023-05-05T05:44:15.567Z,74.29
2023-05-05T05:45:09.125Z,72.31
2023-05-05T05:46:09.516Z,71.50
2023-05-05T05:47:09.243Z,69.72
2023-05-05T05:48:09.410Z,68.57
2023-05-05T05:49:09.436Z,69.66
2023-05-05T05:50:09.741Z,70.07
2023-05-05T05:51:09.576Z,70.66
2023-05-05T05:52:09.660Z,73.57
2023-05-05T05:53:09.716Z,77.24
2023-05-05T05:54:09.802Z,78.18
2023-05-05T05:55:09.867Z,79.59
2023-05-05T05:56:09.970Z,79.59
2023-05-05T05:57:10.023Z,79.66
2023-05-05T05:58:10.129Z,79.59
2023-05-05T05:59:10.188Z,78.69
2023-05-05T06:00:10.528Z,78.99
2023-05-05T06:01:10.350Z,78.69
2023-05-05T06:02:10.435Z,78.69
2023-05-05T06:03:10.562Z,77.17
2023-05-05T06:04:10.593Z,78.18
2023-05-05T06:05:10.620Z,77.74
2023-05-05T06:06:10.711Z,75.70
2023-05-05T06:07:10.800Z,73.32
2023-05-05T06:08:10.894Z,74.49
2023-05-05T06:09:10.954Z,74.96
2023-05-05T06:10:25.872Z,73.71
2023-05-05T06:11:11.120Z,74.56
2023-05-05T06:12:11.186Z,73.32
2023-05-05T06:13:11.337Z,74.56
2023-05-05T06:14:11.384Z,75.64
2023-05-05T06:15:17.503Z,75.84
2023-05-05T06:16:11.631Z,74.82
2023-05-05T06:17:11.637Z,72.49
2023-05-05T06:18:11.793Z,72.06
2023-05-05T06:19:11.823Z,71.20
2023-05-05T06:20:11.921Z,70.84
2023-05-05T06:21:11.980Z,71.02
2023-05-05T06:22:12.144Z,70.66
2023-05-05T06:23:12.167Z,71.50
2023-05-05T06:24:12.233Z,73.00
2023-05-05T06:25:12.312Z,74.29
2023-05-05T06:26:12.405Z,74.43
2023-05-05T06:27:12.502Z,75.84
2023-05-05T06:28:12.572Z,78.03
2023-05-05T06:29:12.660Z,78.76
2023-05-05T06:30:12.760Z,79.36
2023-05-05T06:31:12.881Z,78.47
2023-05-05T06:32:12.885Z,79.82
2023-05-05T06:33:12.977Z,82.17
2023-05-05T06:34:13.051Z,83.56
2023-05-05T06:35:13.098Z,83.14
2023-05-05T06:36:13.197Z,82.90
2023-05-05T06:37:13.290Z,81.84
2023-05-05T06:38:13.336Z,80.66
2023-05-05T06:39:15.843Z,78.03
2023-05-05T06:40:13.521Z,77.96
2023-05-05T06:41:13.579Z,78.76
2023-05-05T06:42:13.693Z,80.35
2023-05-05T06:43:13.746Z,81.13
2023-05-05T06:44:13.836Z,80.97
2023-05-05T06:45:13.926Z,79.14
2023-05-05T06:46:20.192Z,78.10
2023-05-05T06:47:14.121Z,78.10
2023-05-05T06:48:14.187Z,78.32
2023-05-05T06:49:14.257Z,77.67
2023-05-05T06:50:14.328Z,76.96
2023-05-05T06:51:14.403Z,76.39
2023-05-05T06:52:14.519Z,76.32
2023-05-05T06:53:14.574Z,75.43
2023-05-05T06:54:14.668Z,74.69
2023-05-05T06:55:14.717Z,74.43
2023-05-05T06:56:14.814Z,72.62
2023-05-05T06:57:14.912Z,70.48
2023-05-05T06:58:15.006Z,68.69
2023-05-05T06:59:15.118Z,68.02
2023-05-05T07:00:15.179Z,67.15
2023-05-05T07:01:15.297Z,68.69
2023-05-05T07:02:15.299Z,70.60
2023-05-05T07:03:15.472Z,71.99
2023-05-05T07:04:15.559Z,71.87
2023-05-05T07:05:15.586Z,73.00
2023-05-05T07:06:15.675Z,72.31
2023-05-05T07:07:15.761Z,70.66
2023-05-05T07:08:15.852Z,71.26
2023-05-05T07:09:17.069Z,70.78
2023-05-05T07:10:16.054Z,70.84
2023-05-05T07:11:16.110Z,70.54
2023-05-05T07:12:16.202Z,71.14
2023-05-05T07:13:16.452Z,70.12
2023-05-05T07:14:16.389Z,70.90
2023-05-05T07:15:26.599Z,73.38
2023-05-05T07:16:16.581Z,73.19
2023-05-05T07:17:22.677Z,71.81
2023-05-05T07:18:16.709Z,71.14
2023-05-05T07:19:16.752Z,71.32
2023-05-05T07:20:16.854Z,69.95
2023-05-05T07:21:16.940Z,68.69
2023-05-05T07:22:17.023Z,69.14
2023-05-05T07:23:17.099Z,69.89
2023-05-05T07:24:17.195Z,70.30
2023-05-05T07:25:17.302Z,70.78
2023-05-05T07:26:17.331Z,69.78
2023-05-05T07:27:17.421Z,67.36
2023-05-05T07:28:17.514Z,66.93
2023-05-05T07:29:17.598Z,66.14
2023-05-05T07:30:19.078Z,66.19
2023-05-05T07:31:17.770Z,66.24
2023-05-05T07:32:17.899Z,67.15
2023-05-05T07:33:17.897Z,67.58
2023-05-05T07:34:17.986Z,65.36
2023-05-05T07:35:18.094Z,65.83
2023-05-05T07:36:18.165Z,67.20
2023-05-05T07:37:18.261Z,67.31
2023-05-05T07:38:18.357Z,68.35
2023-05-05T07:39:18.461Z,68.69
2023-05-05T07:40:18.523Z,68.29
2023-05-05T07:41:18.634Z,68.13
2023-05-05T07:42:18.682Z,67.53
2023-05-05T07:43:18.766Z,66.88
2023-05-05T07:44:18.862Z,66.51
2023-05-05T07:45:18.912Z,65.36
2023-05-05T07:46:19.273Z,64.86
2023-05-05T07:47:19.091Z,65.88
2023-05-05T07:48:25.524Z,67.74
2023-05-05T07:49:19.275Z,67.91
2023-05-05T07:50:19.368Z,68.35
2023-05-05T07:51:19.470Z,67.58
2023-05-05T07:52:25.241Z,67.74
2023-05-05T07:53:19.628Z,68.35
2023-05-05T07:54:19.721Z,68.29
2023-05-05T07:55:19.821Z,68.35
2023-05-05T07:56:21.682Z,68.46
2023-05-05T07:57:19.984Z,70.18
2023-05-05T07:58:20.045Z,70.90
2023-05-05T07:59:20.097Z,71.62
2023-05-05T08:00:20.163Z,70.18
2023-05-05T08:01:20.262Z,68.46
2023-05-05T08:02:20.352Z,67.36
2023-05-05T08:03:20.569Z,66.19
2023-05-05T08:04:20.520Z,65.36
2023-05-05T08:05:20.568Z,65.52
2023-05-05T08:06:20.683Z,66.45
2023-05-05T08:07:20.770Z,69.95
2023-05-05T08:08:20.824Z,70.30
2023-05-05T08:09:20.905Z,70.78
2023-05-05T08:10:20.998Z,72.93
2023-05-05T08:11:21.094Z,73.45
2023-05-05T08:12:21.212Z,75.03
2023-05-05T08:13:21.278Z,74.29
2023-05-05T08:14:21.382Z,73.00
2023-05-05T08:15:21.432Z,73.13
2023-05-05T08:16:21.592Z,75.70
2023-05-05T08:17:21.647Z,75.16
2023-05-05T08:18:21.716Z,72.81
2023-05-05T08:19:29.512Z,72.81
2023-05-05T08:20:21.862Z,74.36
2023-05-05T08:21:21.955Z,74.29
2023-05-05T08:22:22.041Z,73.77
2023-05-05T08:23:22.145Z,71.56
2023-05-05T08:24:22.322Z,70.84
2023-05-05T08:25:22.310Z,72.24
2023-05-05T08:26:22.401Z,70.54
2023-05-05T08:27:22.467Z,71.81
2023-05-05T08:28:22.523Z,73.90
2023-05-05T08:29:22.616Z,76.46
2023-05-05T08:30:22.705Z,77.24
2023-05-05T08:31:22.894Z,76.89
2023-05-05T08:32:22.896Z,75.29
2023-05-05T08:33:22.988Z,73.57
2023-05-05T08:34:23.049Z,73.90
2023-05-05T08:35:23.171Z,72.87
2023-05-05T08:36:23.234Z,70.24
2023-05-05T08:37:23.302Z,70.54
2023-05-05T08:38:23.415Z,71.56
2023-05-05T08:39:23.493Z,73.57
2023-05-05T08:40:23.583Z,73.90
2023-05-05T08:41:23.639Z,74.10
2023-05-05T08:42:36.284Z,73.57
2023-05-05T08:43:23.832Z,72.93
2023-05-05T08:44:23.893Z,72.37
2023-05-05T08:45:23.961Z,70.66
2023-05-05T08:46:24.096Z,70.18
2023-05-05T08:47:24.166Z,69.03
2023-05-05T08:48:24.257Z,70.07
2023-05-05T08:49:24.323Z,69.37
2023-05-05T08:50:30.363Z,68.46
2023-05-05T08:51:24.439Z,66.67
2023-05-05T08:52:24.584Z,64.86
2023-05-05T08:53:24.615Z,62.53
2023-05-05T08:54:24.711Z,60.46
2023-05-05T08:55:24.866Z,60.11
2023-05-05T08:56:24.889Z,61.79
2023-05-05T08:57:25.003Z,60.20
2023-05-05T08:58:26.921Z,59.94
2023-05-05T08:59:25.147Z,61.03
2023-05-05T09:00:25.228Z,62.96
2023-05-05T09:01:25.350Z,63.29
2023-05-05T09:02:25.463Z,61.48
2023-05-05T09:03:25.512Z,59.43
2023-05-05T09:04:25.565Z,58.03
2023-05-05T09:05:25.629Z,58.97
2023-05-05T09:06:25.747Z,60.54
2023-05-05T09:07:25.825Z,60.33
2023-05-05T09:08:25.948Z,60.28
2023-05-05T09:09:26.020Z,61.34
2023-05-05T09:10:26.075Z,63.34
2023-05-05T09:11:26.182Z,61.70
2023-05-05T09:12:26.258Z,60.24
2023-05-05T09:13:26.363Z,58.88
2023-05-05T09:14:26.454Z,56.35
2023-05-05T09:15:26.554Z,55.71
2023-05-05T09:16:26.690Z,55.53
2023-05-05T09:17:26.808Z,57.67
2023-05-05T09:18:26.816Z,57.47
2023-05-05T09:19:26.874Z,54.91
2023-05-05T09:20:26.958Z,53.37
2023-05-05T09:21:33.557Z,51.50
2023-05-05T09:22:27.132Z,51.09
2023-05-05T09:23:27.177Z,50.75
2023-05-05T09:24:27.275Z,51.43
2023-05-05T09:25:27.383Z,50.81
2023-05-05T09:26:27.447Z,48.57
2023-05-05T09:27:27.536Z,51.28
2023-05-05T09:28:27.600Z,53.68
2023-05-05T09:29:27.695Z,56.81
2023-05-05T09:30:27.805Z,59.72
2023-05-05T09:31:27.934Z,62.77
2023-05-05T09:32:30.429Z,63.19
2023-05-05T09:33:28.004Z,62.02
2023-05-05T09:34:28.096Z,59.94
2023-05-05T09:35:28.248Z,56.16
2023-05-05T09:36:28.284Z,56.73
2023-05-05T09:37:28.373Z,57.87
2023-05-05T09:38:28.467Z,60.81
2023-05-05T09:39:28.590Z,59.90
2023-05-05T09:40:28.657Z,57.55
2023-05-05T09:41:28.755Z,55.20
2023-05-05T09:42:28.856Z,55.27
2023-05-05T09:43:28.944Z,54.94
2023-05-05T09:44:29.012Z,55.34
2023-05-05T09:45:29.067Z,55.56
2023-05-05T09:46:29.225Z,55.34
2023-05-05T09:47:30.040Z,55.05
2023-05-05T09:48:29.466Z,55.20
2023-05-05T09:49:29.435Z,55.49
2023-05-05T09:50:29.524Z,54.20
2023-05-05T09:51:29.630Z,57.19
2023-05-05T09:52:36.229Z,61.79
2023-05-05T09:53:29.755Z,63.82
2023-05-05T09:54:29.879Z,67.91
2023-05-05T09:55:29.923Z,67.63
2023-05-05T09:56:30.029Z,64.26
2023-05-05T09:57:30.081Z,63.10
2023-05-05T09:58:30.231Z,61.79
2023-05-05T09:59:30.266Z,60.07
2023-05-05T10:00:30.377Z,58.88
2023-05-05T10:01:30.459Z,60.24
2023-05-05T10:02:30.561Z,61.25
2023-05-05T10:03:32.312Z,60.72
2023-05-05T10:04:30.735Z,59.01
2023-05-05T10:05:30.756Z,58.51
2023-05-05T10:06:30.859Z,60.41
2023-05-05T10:07:30.983Z,62.58
2023-05-05T10:08:31.044Z,64.06
2023-05-05T10:09:31.136Z,63.87
2023-05-05T10:10:31.936Z,65.16
2023-05-05T10:11:31.287Z,65.26
2023-05-05T10:12:31.428Z,64.76
2023-05-05T10:13:31.456Z,63.24
2023-05-05T10:14:31.555Z,62.81
2023-05-05T10:15:31.686Z,60.99
2023-05-05T10:16:31.736Z,59.17
2023-05-05T10:17:31.856Z,58.23
2023-05-05T10:18:33.009Z,58.88
2023-05-05T10:19:31.973Z,58.76
2023-05-05T10:20:32.070Z,58.03
2023-05-05T10:21:32.198Z,57.39
2023-05-05T10:22:32.276Z,56.16
2023-05-05T10:23:38.317Z,54.62
2023-05-05T10:24:32.412Z,51.24
2023-05-05T10:25:32.504Z,50.56
2023-05-05T10:26:32.605Z,49.03
2023-05-05T10:27:32.707Z,48.97
2023-05-05T10:28:32.775Z,45.27
2023-05-05T10:29:32.865Z,43.66
2023-05-05T10:30:32.916Z,44.64
2023-05-05T10:31:33.028Z,46.89
2023-05-05T10:32:56.394Z,48.15
2023-05-05T10:33:33.239Z,47.66
2023-05-05T10:34:33.322Z,47.04
2023-05-05T10:35:33.355Z,45.66
2023-05-05T10:36:33.444Z,42.69
2023-05-05T10:37:33.537Z,40.19
2023-05-05T10:38:33.655Z,39.03
2023-05-05T10:39:33.700Z,38.28
2023-05-05T10:40:33.796Z,38.88
2023-05-05T10:41:33.898Z,40.23
2023-05-05T10:42:33.958Z,40.30
2023-05-05T10:43:34.064Z,40.42
2023-05-05T10:44:34.155Z,42.08
2023-05-05T10:45:34.286Z,41.17
2023-05-05T10:46:34.370Z,40.15
2023-05-05T10:47:34.432Z,39.58
2023-05-05T10:48:34.491Z,41.38
2023-05-05T10:49:34.563Z,42.90
2023-05-05T10:50:34.646Z,43.03
2023-05-05T10:51:40.312Z,44.03
2023-05-05T10:52:34.847Z,43.98
2023-05-05T10:53:34.918Z,44.69
2023-05-05T10:54:40.968Z,43.62
2023-05-05T10:55:35.057Z,39.51
2023-05-05T10:56:35.256Z,36.70
2023-05-05T10:57:35.248Z,34.67
2023-05-05T10:58:47.063Z,32.90
2023-05-05T10:59:35.402Z,32.39
2023-05-05T11:00:35.475Z,32.22
2023-05-05T11:01:35.732Z,32.19
2023-05-05T11:02:35.641Z,31.90
2023-05-05T11:03:35.767Z,32.24
2023-05-05T11:04:35.807Z,34.39
2023-05-05T11:05:35.908Z,38.14
2023-05-05T11:06:36.002Z,41.67
2023-05-05T11:07:36.063Z,44.69
2023-05-05T11:08:36.167Z,47.12
2023-05-05T11:09:36.239Z,48.15
2023-05-05T11:10:36.304Z,49.11
2023-05-05T11:11:36.380Z,49.87
2023-05-05T11:12:38.136Z,49.78
2023-05-05T11:13:36.553Z,49.00
2023-05-05T11:14:36.653Z,47.93
2023-05-05T11:15:36.745Z,46.99
2023-05-05T11:16:36.872Z,46.52
2023-05-05T11:17:36.947Z,47.58
2023-05-05T11:18:36.993Z,50.11
2023-05-05T11:19:37.067Z,53.33
2023-05-05T11:20:37.229Z,54.55
2023-05-05T11:21:37.233Z,53.99
2023-05-05T11:22:37.302Z,53.37
2023-05-05T11:23:37.394Z,51.53
2023-05-05T11:24:37.488Z,50.78
2023-05-05T11:25:43.974Z,53.30
2023-05-05T11:26:37.667Z,53.30
2023-05-05T11:27:37.755Z,54.16
2023-05-05T11:28:37.864Z,55.20
2023-05-05T11:29:37.927Z,55.93
2023-05-05T11:30:37.977Z,58.15
2023-05-05T11:31:38.148Z,58.84
2023-05-05T11:32:38.215Z,56.27
2023-05-05T11:33:38.266Z,56.77
2023-05-05T11:34:38.317Z,57.31
2023-05-05T11:35:38.408Z,55.42
2023-05-05T11:36:38.535Z,54.84
2023-05-05T11:37:38.609Z,55.27
2023-05-05T11:38:38.695Z,56.01
2023-05-05T11:39:38.783Z,59.13
2023-05-05T11:40:38.873Z,61.34
2023-05-05T11:41:38.961Z,62.35
2023-05-05T11:42:39.019Z,62.30
2023-05-05T11:43:39.124Z,63.15
2023-05-05T11:44:39.226Z,63.24
2023-05-05T11:45:39.318Z,62.96
2023-05-05T11:46:39.421Z,62.39
2023-05-05T11:47:39.485Z,61.84
2023-05-05T11:48:39.525Z,61.70
2023-05-05T11:49:39.643Z,59.85
2023-05-05T11:50:39.712Z,58.39
2023-05-05T11:51:39.837Z,58.23
2023-05-05T11:52:39.896Z,59.01
2023-05-05T11:53:40.579Z,57.75
2023-05-05T11:54:40.067Z,57.16
2023-05-05T11:55:40.153Z,55.86
2023-05-05T11:56:46.235Z,55.75
2023-05-05T11:57:40.348Z,55.49
2023-05-05T11:58:40.380Z,56.96
2023-05-05T11:59:40.469Z,57.23
2023-05-05T12:00:40.584Z,56.24
2023-05-05T12:01:40.622Z,56.12
2023-05-05T12:02:40.815Z,57.83
2023-05-05T12:03:41.051Z,59.17
2023-05-05T12:04:40.961Z,57.19
2023-05-05T12:05:40.959Z,57.47
2023-05-05T12:06:41.083Z,58.51
2023-05-05T12:07:41.152Z,58.80
2023-05-05T12:08:41.192Z,59.98
2023-05-05T12:09:41.308Z,60.11
2023-05-05T12:10:41.369Z,59.26
2023-05-05T12:11:41.468Z,58.72
2023-05-05T12:12:41.654Z,58.97
2023-05-05T12:13:41.720Z,58.35
2023-05-05T12:14:41.720Z,59.77
2023-05-05T12:15:41.803Z,63.58
2023-05-05T12:16:41.986Z,65.21
2023-05-05T12:17:43.106Z,64.26
2023-05-05T12:24:49.748Z,46.96
2023-05-05T12:25:52.528Z,68.18
2023-05-05T12:26:50.904Z,74.36
2023-05-05T12:27:50.995Z,75.70
2023-05-05T12:28:51.101Z,73.06
2023-05-05T12:29:51.149Z,70.07
2023-05-05T12:31:51.377Z,65.47
2023-05-05T12:32:51.414Z,65.47
2023-05-05T12:33:51.485Z,64.66
2023-05-05T12:34:51.546Z,65.93
2023-05-05T12:35:51.646Z,65.26
2023-05-05T12:36:51.743Z,66.61
2023-05-05T12:37:51.828Z,67.36
2023-05-05T12:38:51.936Z,66.35
2023-05-05T12:39:52.009Z,65.57
2023-05-05T12:40:52.091Z,67.09
2023-05-05T12:41:52.148Z,66.51
2023-05-05T12:42:52.237Z,67.31
2023-05-05T12:43:52.338Z,66.67
2023-05-05T12:44:52.443Z,65.47
2023-05-05T12:45:52.546Z,65.06
2023-05-05T12:46:52.575Z,64.86
2023-05-05T12:47:52.659Z,65.57
2023-05-05T12:48:52.833Z,65.78
2023-05-05T12:49:52.828Z,64.91
2023-05-05T12:50:52.926Z,63.58
2023-05-05T12:51:53.013Z,58.35
2023-05-05T12:52:53.099Z,55.97
2023-05-05T12:53:53.201Z,52.01
2023-05-05T12:54:54.860Z,49.67
2023-05-05T12:55:59.793Z,47.55
2023-05-05T12:56:53.399Z,46.57
2023-05-05T12:57:53.470Z,47.07
2023-05-05T12:58:53.580Z,46.52
2023-05-05T12:59:53.631Z,46.37
2023-05-05T13:00:55.068Z,46.37